Time;durP1;ratioP1;P1;durP2;ratioP2;P2;SDS_P1;SDS_P2;PMS_P1;PMS_P2;Temp;Humidity;BMP_temperature;BMP_pressure;BME280_temperature;BME280_humidity;BME280_pressure;Samples;Min_cycle;Max_cycle;Signal;HPM_P1;HPM_P2
2023/10/15 00:00:24;;;;;;;1.88;0.47;;;;;;;8.39;66.93;100716.13;4941690;28;20054;-88
2023/10/15 00:02:52;;;;;;;1.20;0.50;;;;;;;8.52;66.88;100717.88;4923894;28;20996;-89
2023/10/15 00:05:22;;;;;;;2.58;0.75;;;;;;;8.38;66.79;100717.00;4932552;28;20058;-89
2023/10/15 00:07:49;;;;;;;1.67;0.55;;;;;;;8.16;66.75;100714.41;4917937;28;20070;-89
2023/10/15 00:10:21;;;;;;;1.25;0.60;;;;;;;8.28;67.08;100718.75;4939068;28;20066;-89
2023/10/15 00:12:50;;;;;;;1.58;0.60;;;;;;;8.41;66.87;100719.59;4934135;28;20566;-89
2023/10/15 00:15:20;;;;;;;2.92;0.82;;;;;;;8.51;66.86;100721.34;4940611;28;20059;-89
2023/10/15 00:17:50;;;;;;;2.10;0.80;;;;;;;8.25;65.69;100721.38;4939004;28;20070;-88
2023/10/15 00:20:19;;;;;;;2.30;0.70;;;;;;;8.32;67.40;100725.72;4941386;28;20055;-89
2023/10/15 00:22:48;;;;;;;3.13;0.88;;;;;;;8.45;66.42;100718.75;4934578;28;20058;-89
2023/10/15 00:25:18;;;;;;;1.10;0.60;;;;;;;8.57;66.36;100718.72;4939210;28;20052;-89
2023/10/15 00:27:54;;;;;;;1.45;0.70;;;;;;;8.75;66.13;100716.91;4934344;28;20055;-89
2023/10/15 00:30:22;;;;;;;0.95;0.50;;;;;;;8.40;66.22;100710.00;4940266;28;20052;-89
2023/10/15 00:32:52;;;;;;;0.88;0.50;;;;;;;8.39;65.89;100716.13;4931717;28;20055;-89
2023/10/15 00:35:19;;;;;;;2.38;0.50;;;;;;;8.26;66.74;100710.91;4938613;28;20086;-89
2023/10/15 00:37:56;;;;;;;1.67;0.60;;;;;;;8.40;67.02;100710.91;4933620;28;20055;-89
2023/10/15 00:40:25;;;;;;;1.45;0.60;;;;;;;8.38;66.63;100710.00;4931587;28;20055;-89
2023/10/15 00:42:52;;;;;;;2.00;0.55;;;;;;;8.46;66.96;100708.28;4935335;28;20059;-88
2023/10/15 00:45:20;;;;;;;2.22;0.93;;;;;;;8.53;66.57;100703.94;4938103;28;20063;-89
2023/10/15 00:48:02;;;;;;;1.60;0.63;;;;;;;8.49;65.84;100704.81;4914793;28;20054;-89
2023/10/15 00:50:34;;;;;;;1.25;0.70;;;;;;;8.66;65.82;100695.16;4936785;28;20051;-89
2023/10/15 00:53:06;;;;;;;1.83;0.80;;;;;;;8.51;65.81;100695.19;4925237;28;20051;-89
2023/10/15 00:55:37;;;;;;;2.25;0.60;;;;;;;8.50;65.88;100698.69;4933715;28;20055;-88
2023/10/15 00:58:08;;;;;;;3.17;0.80;;;;;;;8.52;65.45;100691.72;4923249;28;20047;-89
2023/10/15 01:03:30;;;;;;;1.42;0.88;;;;;;;8.58;65.77;100689.06;4930061;28;20047;-88
2023/10/15 01:06:01;;;;;;;1.95;0.50;;;;;;;8.48;65.11;100690.84;4923151;28;20059;-89
2023/10/15 01:08:38;;;;;;;2.47;0.82;;;;;;;8.40;65.48;100689.09;4923611;29;20058;-89
2023/10/15 01:11:14;;;;;;;2.92;0.50;;;;;;;8.60;64.83;100696.91;4935548;28;20081;-89
2023/10/15 01:13:41;;;;;;;3.03;0.80;;;;;;;8.51;65.50;100689.97;4928793;28;20138;-89
2023/10/15 01:16:10;;;;;;;0.85;0.63;;;;;;;8.84;65.52;100691.59;4933238;28;20052;-89
2023/10/15 01:18:37;;;;;;;2.55;0.65;;;;;;;8.92;65.62;100691.59;4936522;28;20479;-88
2023/10/15 01:21:09;;;;;;;2.53;0.60;;;;;;;8.62;65.72;100688.19;4939944;28;20064;-89
2023/10/15 01:26:15;;;;;;;;;;;;;;;8.43;67.06;100697.81;4937277;28;20138;-89
2023/10/15 01:28:43;;;;;;;1.10;0.47;;;;;;;8.61;66.73;100694.28;4921251;28;19926;-89
2023/10/15 01:31:15;;;;;;;1.52;0.75;;;;;;;8.40;67.12;100696.94;4937111;28;20054;-89
2023/10/15 01:33:49;;;;;;;1.30;0.50;;;;;;;8.33;67.30;100696.09;4933746;28;20206;-89
2023/10/15 01:36:27;;;;;;;2.47;0.65;;;;;;;8.25;67.68;100698.69;4940044;28;20061;-89
2023/10/15 01:39:09;;;;;;;2.58;0.68;;;;;;;8.47;67.32;100703.91;4932387;28;20059;-88
2023/10/15 01:41:39;;;;;;;1.55;0.63;;;;;;;8.52;67.13;100702.19;4918545;28;20051;-89
2023/10/15 01:44:07;;;;;;;3.08;0.75;;;;;;;8.17;67.56;100697.84;4942109;28;20047;-89
2023/10/15 01:46:45;;;;;;;3.88;0.90;;;;;;;8.29;67.51;100700.44;4947080;28;20059;-89
2023/10/15 01:49:17;;;;;;;3.45;0.85;;;;;;;8.29;67.73;100700.44;4914677;28;20068;-89
2023/10/15 01:51:45;;;;;;;1.83;1.00;;;;;;;8.43;67.31;100705.66;4931157;28;20047;-89
2023/10/15 01:54:12;;;;;;;0.98;0.68;;;;;;;8.48;66.81;100703.91;4919905;28;20076;-89
2023/10/15 01:56:44;;;;;;;2.17;1.08;;;;;;;8.32;67.44;100705.66;4908784;28;20051;-89
2023/10/15 01:59:11;;;;;;;0.50;0.43;;;;;;;8.54;66.79;100716.13;4921381;28;20058;-88
2023/10/15 02:01:41;;;;;;;2.47;0.90;;;;;;;8.36;67.25;100711.78;4911656;28;20512;-89
2023/10/15 02:06:51;;;;;;;1.55;0.60;;;;;;;8.39;67.72;100708.28;4913249;28;20048;-89
2023/10/15 02:09:24;;;;;;;3.45;0.80;;;;;;;8.40;67.63;100707.38;4917459;28;20048;-89
2023/10/15 02:11:54;;;;;;;;;;;;;;;8.42;67.76;100710.88;4912754;28;20063;-89
2023/10/15 02:14:23;;;;;;;4.57;0.88;;;;;;;8.35;67.43;100710.88;4919017;28;19929;-89
2023/10/15 02:16:50;;;;;;;1.95;0.80;;;;;;;8.61;67.00;100711.75;4919415;28;20055;-89
2023/10/15 02:19:34;;;;;;;2.33;0.70;;;;;;;8.50;67.71;100706.53;4917787;28;20047;-89
2023/10/15 02:22:05;;;;;;;1.75;0.70;;;;;;;8.44;67.55;100711.75;4899053;29;20052;-90
2023/10/15 02:24:34;;;;;;;2.08;0.90;;;;;;;8.59;67.32;100716.09;4918035;28;20044;-88
2023/10/15 02:27:09;;;;;;;1.20;0.70;;;;;;;8.49;67.38;100700.44;4921721;28;20053;-88
2023/10/15 02:29:35;;;;;;;1.33;0.57;;;;;;;8.16;69.00;100699.56;4911773;28;20131;-89
2023/10/15 02:32:20;;;;;;;2.95;0.80;;;;;;;8.28;68.14;100706.53;4920366;28;20079;-89
2023/10/15 02:34:51;;;;;;;1.70;0.80;;;;;;;8.33;67.93;100707.41;4908757;28;20051;-89
2023/10/15 02:37:19;;;;;;;1.80;0.50;;;;;;;8.18;68.67;100707.41;4918021;28;20058;-88
2023/10/15 02:39:52;;;;;;;2.10;0.70;;;;;;;8.35;68.04;100700.41;4912167;29;20050;-88
2023/10/15 02:42:20;;;;;;;3.45;0.73;;;;;;;8.25;68.32;100708.28;4922652;28;20113;-89
2023/10/15 02:44:53;;;;;;;1.45;0.60;;;;;;;8.30;68.39;100693.47;4914219;29;20055;-89
2023/10/15 02:47:28;;;;;;;1.83;0.70;;;;;;;8.38;68.30;100696.06;4919795;28;20489;-89
2023/10/15 02:50:03;;;;;;;3.08;0.80;;;;;;;8.29;68.46;100699.56;4912227;28;20060;-89
2023/10/15 02:52:42;;;;;;;1.33;0.70;;;;;;;8.29;68.70;100699.56;4918610;28;20079;-89
2023/10/15 02:55:14;;;;;;;2.50;0.80;;;;;;;7.99;70.00;100696.09;4915119;28;20079;-89
2023/10/15 02:57:43;;;;;;;2.35;0.77;;;;;;;8.01;69.46;100700.47;4919633;28;20047;-89
2023/10/15 03:02:55;;;;;;;1.95;0.68;;;;;;;8.32;68.59;100696.94;4916588;28;20115;-89
2023/10/15 03:05:40;;;;;;;1.20;0.68;;;;;;;7.91;70.33;100697.88;4915669;28;20441;-89
2023/10/15 03:08:07;;;;;;;0.73;0.60;;;;;;;8.20;69.49;100690.00;4917028;29;20512;-89
2023/10/15 03:10:50;;;;;;;2.70;1.55;;;;;;;8.36;68.77;100691.72;4912514;28;20050;-89
2023/10/15 03:13:18;;;;;;;1.63;0.65;;;;;;;8.42;68.53;100692.59;4916945;28;20091;-89
2023/10/15 03:15:52;;;;;;;3.30;0.82;;;;;;;8.31;69.18;100696.09;4918168;29;20134;-89
2023/10/15 03:18:23;;;;;;;1.55;0.88;;;;;;;8.29;69.37;100697.81;4918050;28;20059;-89
2023/10/15 03:23:39;;;;;;;1.52;0.80;;;;;;;8.30;69.21;100699.56;4912389;28;20051;-89
2023/10/15 03:26:07;;;;;;;1.23;0.90;;;;;;;8.29;69.12;100700.44;4914876;29;20083;-89
2023/10/15 03:28:34;;;;;;;2.33;0.60;;;;;;;8.30;68.98;100701.31;4911453;29;20051;-90
2023/10/15 03:31:01;;;;;;;2.05;0.60;;;;;;;8.17;69.28;100703.94;4927552;28;20052;-88
2023/10/15 03:33:30;;;;;;;1.45;0.82;;;;;;;7.96;69.89;100702.19;4918036;28;20051;-89
2023/10/15 03:35:59;;;;;;;2.35;0.85;;;;;;;8.05;69.66;100708.31;4913190;28;20142;-88
2023/10/15 03:38:33;;;;;;;3.20;0.60;;;;;;;7.94;70.16;100703.94;4916302;29;20048;-89
2023/10/15 03:41:21;;;;;;;3.97;0.70;;;;;;;8.10;69.33;100711.81;4914523;29;20147;-89
2023/10/15 03:43:48;;;;;;;3.70;0.68;;;;;;;8.10;69.35;100706.56;4912967;28;20080;-90
2023/10/15 03:46:25;;;;;;;2.28;0.70;;;;;;;7.96;69.77;100702.19;4919148;29;20111;-89
2023/10/15 03:48:53;;;;;;;1.55;0.80;;;;;;;8.06;69.41;100705.69;4912443;29;20056;-89
2023/10/15 03:51:23;;;;;;;2.60;0.70;;;;;;;7.92;69.71;100708.31;4860290;28;20053;-88
2023/10/15 03:53:50;;;;;;;0.95;0.50;;;;;;;7.76;70.34;100703.94;4891785;28;20051;-89
2023/10/15 03:56:18;;;;;;;1.75;0.50;;;;;;;7.74;70.57;100695.25;4914834;28;20079;-89
2023/10/15 03:58:51;;;;;;;1.85;0.60;;;;;;;7.67;70.27;100699.59;4912534;28;20059;-89
2023/10/15 04:01:20;;;;;;;1.70;0.70;;;;;;;7.59;70.45;100699.59;4916920;28;20056;-89
2023/10/15 04:03:47;;;;;;;0.90;0.70;;;;;;;7.57;70.44;100709.13;4909074;29;20080;-89
2023/10/15 04:06:19;;;;;;;2.22;0.65;;;;;;;7.59;70.18;100701.31;4919967;28;20055;-89
2023/10/15 04:11:30;;;;;;;3.00;0.68;;;;;;;7.24;71.16;100703.00;4896542;29;20058;-88
2023/10/15 04:14:01;;;;;;;2.10;0.57;;;;;;;7.24;71.25;100710.81;4909815;28;20155;-88
2023/10/15 04:16:29;;;;;;;2.70;0.68;;;;;;;7.28;71.36;100707.34;4924476;28;20051;-90
2023/10/15 04:19:00;;;;;;;1.70;0.90;;;;;;;6.99;72.33;100706.38;4909309;28;20490;-89
2023/10/15 04:21:27;;;;;;;5.28;0.77;;;;;;;7.08;72.21;100709.91;4919222;28;20125;-89
2023/10/15 04:23:56;;;;;;;2.08;0.60;;;;;;;7.10;71.78;100708.16;4896026;28;20238;-90
2023/10/15 04:26:28;;;;;;;1.08;0.63;;;;;;;7.22;71.10;100701.25;4903061;29;20142;-89
2023/10/15 04:28:56;;;;;;;;;;;;;;;7.37;70.74;100706.50;4915232;28;20051;-89
2023/10/15 04:31:23;;;;;;;1.05;0.60;;;;;;;7.27;70.89;100708.22;4923095;28;20013;-89
2023/10/15 04:33:51;;;;;;;2.42;0.63;;;;;;;7.24;70.96;100710.81;4915082;29;20054;-89
2023/10/15 04:36:18;;;;;;;2.85;0.70;;;;;;;7.16;71.29;100707.31;4902652;29;20059;-89
2023/10/15 04:38:45;;;;;;;2.72;0.65;;;;;;;7.28;70.68;100716.91;4914363;28;20046;-89
2023/10/15 04:41:19;;;;;;;1.40;0.63;;;;;;;7.19;71.12;100722.97;4916024;28;20048;-89
2023/10/15 04:43:48;;;;;;;4.30;0.95;;;;;;;7.12;71.53;100716.84;4913823;28;20139;-88
2023/10/15 04:46:19;;;;;;;5.43;1.00;;;;;;;7.18;71.84;100715.16;4920414;28;20061;-89
2023/10/15 04:48:47;;;;;;;2.90;0.82;;;;;;;7.13;72.12;100715.13;4898672;29;20529;-88
2023/10/15 04:51:14;;;;;;;3.78;0.80;;;;;;;7.29;70.75;100716.06;4922443;28;20127;-89
2023/10/15 04:53:50;;;;;;;2.67;0.68;;;;;;;7.21;70.91;100716.03;4914543;28;20064;-89
2023/10/15 04:56:21;;;;;;;1.02;0.57;;;;;;;7.09;71.05;100721.22;4922481;28;20056;-89
2023/10/15 04:58:48;;;;;;;4.10;0.70;;;;;;;7.05;71.26;100719.44;4911275;28;20067;-89
2023/10/15 05:01:15;;;;;;;2.85;0.90;;;;;;;7.23;70.84;100719.50;4925168;28;20107;-89
2023/10/15 05:03:45;;;;;;;2.65;1.00;;;;;;;7.08;70.96;100719.44;4914002;28;20051;-89
2023/10/15 05:06:13;;;;;;;2.10;1.30;;;;;;;6.84;71.69;100731.53;4919573;29;20047;-89
2023/10/15 05:08:47;;;;;;;7.15;1.45;;;;;;;6.93;71.25;100726.34;4900495;28;20051;-89
2023/10/15 05:11:21;;;;;;;3.55;0.82;;;;;;;6.64;71.58;100730.56;4919735;28;20099;-89
2023/10/15 05:13:50;;;;;;;2.63;0.90;;;;;;;6.81;71.19;100731.53;4914492;28;20056;-89
2023/10/15 05:16:18;;;;;;;2.22;0.80;;;;;;;6.85;70.80;100732.41;4920618;28;20131;-88
2023/10/15 05:18:47;;;;;;;3.40;0.65;;;;;;;6.85;71.02;100741.13;4912757;29;20047;-89
2023/10/15 05:21:14;;;;;;;3.20;0.90;;;;;;;6.37;72.13;100738.22;4926557;29;20059;-89
2023/10/15 05:23:41;;;;;;;2.58;0.90;;;;;;;6.46;72.09;100739.13;4914137;29;20123;-88
2023/10/15 05:26:08;;;;;;;4.88;0.93;;;;;;;6.37;72.08;100752.97;4920270;28;20040;-89
2023/10/15 05:28:35;;;;;;;2.10;0.73;;;;;;;6.52;72.08;100750.50;4913379;28;20079;-88
2023/10/15 05:31:02;;;;;;;2.25;1.00;;;;;;;6.26;72.25;100752.91;4917637;28;20052;-88
2023/10/15 05:33:29;;;;;;;2.75;0.70;;;;;;;6.22;72.08;100743.31;4920061;28;20055;-89
2023/10/15 05:35:56;;;;;;;2.20;0.88;;;;;;;6.02;72.83;100749.22;4908970;28;20107;-89
2023/10/15 05:38:25;;;;;;;4.82;0.85;;;;;;;6.22;72.35;100751.13;4917461;28;20052;-89
2023/10/15 05:40:58;;;;;;;2.17;1.13;;;;;;;6.21;71.94;100752.00;4906943;28;20051;-89
2023/10/15 05:43:29;;;;;;;1.65;0.85;;;;;;;6.03;73.64;100755.34;4915340;28;20079;-88
2023/10/15 05:45:56;;;;;;;2.63;0.70;;;;;;;5.84;74.12;100754.28;4908922;28;20154;-88
2023/10/15 05:48:23;;;;;;;5.47;1.30;;;;;;;6.04;73.57;100757.94;4892343;29;20130;-87
2023/10/15 05:50:53;;;;;;;0.98;0.63;;;;;;;6.11;73.22;100758.00;4899975;28;20040;-89
2023/10/15 05:53:20;;;;;;;2.28;1.20;;;;;;;6.25;73.43;100767.66;4901687;29;20141;-89
2023/10/15 05:55:47;;;;;;;2.85;1.40;;;;;;;6.28;73.39;100766.81;4896174;29;20057;-89
2023/10/15 05:58:16;;;;;;;3.53;0.70;;;;;;;6.46;72.94;100771.31;4919042;29;20062;-88
2023/10/15 06:00:43;;;;;;;5.18;0.93;;;;;;;6.53;72.47;100773.09;4912139;29;20060;-88
2023/10/15 06:03:10;;;;;;;5.93;1.00;;;;;;;6.48;72.77;100772.19;4918560;28;20055;-90
2023/10/15 06:05:37;;;;;;;1.98;0.70;;;;;;;6.46;73.21;100776.53;4906087;28;20094;-88
2023/10/15 06:08:15;;;;;;;2.08;0.70;;;;;;;6.46;72.42;100780.84;4910154;28;20114;-89
2023/10/15 06:10:54;;;;;;;2.22;0.65;;;;;;;6.16;74.02;100783.22;4906163;29;21560;-88
2023/10/15 06:13:21;;;;;;;3.70;0.90;;;;;;;6.09;74.58;100787.50;4918477;29;20143;-88
2023/10/15 06:15:50;;;;;;;3.95;0.88;;;;;;;6.18;73.00;100781.50;4911580;28;20519;-88
2023/10/15 06:18:17;;;;;;;1.30;0.77;;;;;;;5.95;73.69;100788.22;4917685;28;20055;-88
2023/10/15 06:20:50;;;;;;;2.25;1.00;;;;;;;5.97;73.62;100786.47;4899621;28;20051;-88
2023/10/15 06:23:18;;;;;;;3.53;1.15;;;;;;;5.73;74.32;100788.00;4917728;28;20059;-87
2023/10/15 06:25:44;;;;;;;4.03;0.65;;;;;;;6.08;73.36;100801.41;4910062;28;20135;-86
2023/10/15 06:28:14;;;;;;;2.78;0.80;;;;;;;6.09;72.87;100803.13;4918065;28;20047;-88
2023/10/15 06:30:43;;;;;;;1.63;0.80;;;;;;;5.97;73.68;100796.91;4916671;28;20103;-88
2023/10/15 06:33:11;;;;;;;3.28;1.08;;;;;;;6.27;72.62;100796.34;4919719;28;20062;-88
2023/10/15 06:35:40;;;;;;;3.90;1.15;;;;;;;6.19;72.98;100803.25;4910886;28;20052;-88
2023/10/15 06:38:07;;;;;;;3.17;1.40;;;;;;;6.30;72.79;100795.50;4912562;28;20047;-87
2023/10/15 06:40:37;;;;;;;5.30;0.93;;;;;;;6.22;73.11;100801.53;4912948;28;20075;-87
2023/10/15 06:43:04;;;;;;;2.53;1.00;;;;;;;6.29;72.90;100805.06;4916290;28;20052;-88
2023/10/15 06:45:34;;;;;;;2.00;1.08;;;;;;;6.34;72.74;100812.91;4921622;28;20054;-87
2023/10/15 06:48:02;;;;;;;3.33;0.80;;;;;;;6.29;73.16;100812.03;4911224;28;20107;-87
2023/10/15 06:50:30;;;;;;;2.22;0.80;;;;;;;6.22;73.38;100811.94;4921611;29;20468;-88
2023/10/15 06:53:01;;;;;;;2.72;0.70;;;;;;;6.42;72.75;100811.25;4911588;28;20107;-88
2023/10/15 06:55:31;;;;;;;2.15;0.75;;;;;;;6.59;71.89;100814.00;4916679;28;20488;-88
2023/10/15 06:57:58;;;;;;;5.90;1.13;;;;;;;6.41;72.88;100809.50;4902065;28;20066;-88
2023/10/15 07:00:25;;;;;;;4.22;0.90;;;;;;;6.29;74.04;100812.88;4927536;28;20073;-88
2023/10/15 07:02:53;;;;;;;1.92;0.90;;;;;;;6.24;74.70;100815.47;4905642;28;20077;-88
2023/10/15 07:05:25;;;;;;;1.48;0.70;;;;;;;6.45;73.86;100816.50;4915839;29;20058;-88
2023/10/15 07:07:56;;;;;;;2.15;1.10;;;;;;;6.58;73.66;100810.50;4916301;28;20052;-88
2023/10/15 07:10:24;;;;;;;5.05;0.80;;;;;;;6.90;73.66;100807.22;4912730;28;20055;-87
2023/10/15 07:12:52;;;;;;;4.68;0.80;;;;;;;6.99;73.90;100803.78;4904512;28;20061;-88
2023/10/15 07:15:23;;;;;;;3.38;0.80;;;;;;;7.09;73.41;100809.94;4917115;28;20051;-87
2023/10/15 07:17:51;;;;;;;2.23;0.87;;;;;;;7.06;73.53;100812.53;4883754;28;20052;-88
2023/10/15 07:20:24;;;;;;;3.10;0.88;;;;;;;6.99;74.75;100815.97;4915167;28;20091;-86
2023/10/15 07:22:53;;;;;;;1.60;0.93;;;;;;;7.20;73.28;100809.97;4917109;28;20090;-89
2023/10/15 07:25:22;;;;;;;1.88;0.73;;;;;;;7.29;72.60;100816.13;4915355;28;20107;-87
2023/10/15 07:27:49;;;;;;;1.92;0.70;;;;;;;7.51;71.23;100818.81;4914489;28;20142;-89
2023/10/15 07:30:19;;;;;;;2.05;0.65;;;;;;;7.52;71.72;100815.34;4925298;29;20051;-87
2023/10/15 07:32:48;;;;;;;3.42;0.90;;;;;;;7.81;70.89;100823.28;4888089;28;20147;-87
2023/10/15 07:35:15;;;;;;;3.08;0.88;;;;;;;7.83;70.59;100825.88;4925414;28;20068;-89
2023/10/15 07:37:49;;;;;;;5.05;0.93;;;;;;;8.10;68.77;100834.66;4914193;28;20068;-88
2023/10/15 07:40:18;;;;;;;4.22;0.60;;;;;;;8.32;66.17;100830.31;4902556;29;20054;-89
2023/10/15 07:42:48;;;;;;;3.63;0.60;;;;;;;8.53;65.10;100826.88;4911721;28;20039;-88
2023/10/15 07:45:22;;;;;;;3.22;0.85;;;;;;;8.53;65.28;100824.25;4920116;28;20138;-88
2023/10/15 07:47:54;;;;;;;2.97;0.40;;;;;;;8.68;63.52;100821.59;4908005;28;20055;-87
2023/10/15 07:50:23;;;;;;;2.38;0.43;;;;;;;8.69;63.09;100827.72;4923484;29;20047;-87
2023/10/15 07:52:52;;;;;;;1.48;0.30;;;;;;;8.80;62.57;100832.94;4911638;28;20089;-88
2023/10/15 07:55:23;;;;;;;3.40;0.52;;;;;;;8.86;63.40;100840.78;4916761;29;20055;-87
2023/10/15 07:57:51;;;;;;;2.20;0.43;;;;;;;8.99;61.85;100832.03;4903712;28;20054;-87
2023/10/15 08:00:23;;;;;;;4.50;1.05;;;;;;;9.07;61.62;100831.13;4922118;28;20058;-89
2023/10/15 08:02:57;;;;;;;3.22;0.65;;;;;;;9.02;62.03;100833.75;4918117;28;20099;-88
2023/10/15 08:05:28;;;;;;;2.65;0.57;;;;;;;9.17;61.06;100838.97;4908837;28;20465;-87
2023/10/15 08:07:57;;;;;;;0.70;0.30;;;;;;;9.15;60.32;100826.75;4917071;28;20051;-87
2023/10/15 08:10:31;;;;;;;2.00;0.50;;;;;;;9.19;60.35;100836.34;4924140;28;20050;-87
2023/10/15 08:12:59;;;;;;;4.45;0.50;;;;;;;9.28;59.11;100833.69;4888615;29;20063;-88
2023/10/15 08:15:27;;;;;;;2.55;0.47;;;;;;;9.42;58.18;100838.03;4907206;29;20483;-88
2023/10/15 08:17:57;;;;;;;2.38;0.40;;;;;;;9.40;58.85;100833.66;4924349;28;24379;-87
2023/10/15 08:20:24;;;;;;;3.38;1.02;;;;;;;9.52;58.32;100840.56;4894581;28;20058;-87
2023/10/15 08:22:51;;;;;;;8.18;0.60;;;;;;;9.58;57.92;100837.06;4893828;28;20436;-86
2023/10/15 08:25:21;;;;;;;1.42;0.30;;;;;;;9.60;57.71;100837.91;4917000;28;20051;-89
2023/10/15 08:27:49;;;;;;;2.72;0.50;;;;;;;9.68;56.63;100841.38;4912196;28;20078;-88
2023/10/15 08:30:17;;;;;;;1.27;0.40;;;;;;;9.63;57.31;100852.75;4897885;28;20067;-90
2023/10/15 08:32:46;;;;;;;0.93;0.30;;;;;;;9.77;58.13;100852.69;4904596;28;20131;-87
2023/10/15 08:35:14;;;;;;;2.17;0.30;;;;;;;9.78;56.74;100851.84;4919317;28;20054;-87
2023/10/15 08:37:43;;;;;;;0.50;0.30;;;;;;;9.85;56.86;100859.66;4911448;28;20051;-87
2023/10/15 08:40:18;;;;;;;2.22;0.40;;;;;;;9.89;57.50;100847.38;4915026;28;20059;-88
2023/10/15 08:42:57;;;;;;;1.48;0.75;;;;;;;9.93;57.08;100851.72;4901241;28;20048;-88
2023/10/15 08:45:25;;;;;;;2.40;0.35;;;;;;;9.86;56.62;100866.63;4934146;28;20515;-89
2023/10/15 08:47:53;;;;;;;1.45;0.20;;;;;;;9.91;56.43;100867.47;4893716;28;20055;-87
2023/10/15 08:50:21;;;;;;;1.60;0.30;;;;;;;9.95;56.98;100855.22;4863714;28;20060;-89
2023/10/15 08:52:52;;;;;;;0.73;0.45;;;;;;;10.04;56.28;100854.31;4897493;28;20052;-89
2023/10/15 08:55:23;;;;;;;0.30;0.30;;;;;;;10.05;56.35;100859.53;4917981;28;20058;-89
2023/10/15 08:57:54;;;;;;;0.60;0.40;;;;;;;10.16;56.41;100862.06;4913172;28;20118;-89
2023/10/15 09:00:25;;;;;;;2.08;0.43;;;;;;;10.24;55.81;100857.66;4909948;28;20063;-89
2023/10/15 09:03:00;;;;;;;2.70;0.50;;;;;;;10.35;55.62;100856.75;4825779;28;20068;-89
2023/10/15 09:05:40;;;;;;;1.55;0.50;;;;;;;10.48;55.72;100874.13;4875400;28;20134;-91
2023/10/15 09:08:10;;;;;;;3.25;0.50;;;;;;;10.40;55.22;100858.44;4882744;29;20056;-91
2023/10/15 09:10:40;;;;;;;1.10;0.43;;;;;;;10.46;55.77;100861.88;4890811;28;20107;-89
2023/10/15 09:13:15;;;;;;;1.20;0.30;;;;;;;10.65;55.71;100865.25;4902291;29;20175;-89
2023/10/15 09:16:08;;;;;;;2.05;0.43;;;;;;;10.62;55.24;100868.78;4825139;28;20486;-91
2023/10/15 09:18:37;;;;;;;2.90;0.35;;;;;;;10.89;55.06;100874.66;4901507;28;20047;-89
2023/10/15 09:21:31;;;;;;;1.10;0.50;;;;;;;10.89;54.85;100878.16;4891433;28;20130;-93
2023/10/15 09:24:02;;;;;;;1.95;0.38;;;;;;;10.73;54.00;100868.66;4902533;28;20056;-89
2023/10/15 09:26:31;;;;;;;0.68;0.30;;;;;;;10.77;54.20;100866.00;4844594;28;20051;-92
2023/10/15 09:29:39;;;;;;;3.13;0.47;;;;;;;10.81;53.39;100874.72;4823735;28;20062;-93
2023/10/15 09:32:27;;;;;;;2.70;0.60;;;;;;;10.97;53.87;100875.44;4800916;28;20401;-95
2023/10/15 09:35:21;;;;;;;0.90;0.30;;;;;;;11.02;53.71;100873.66;4737077;29;20053;-93
2023/10/15 09:38:00;;;;;;;1.35;0.40;;;;;;;10.97;53.79;100885.97;4539512;29;20068;-94
2023/10/15 09:41:23;;;;;;;0.85;0.20;;;;;;;10.89;53.76;100886.03;4742424;29;20066;-94
2023/10/15 09:44:09;;;;;;;2.55;0.38;;;;;;;10.96;53.13;100879.84;4784631;29;20076;-95
2023/10/15 09:46:41;;;;;;;1.70;0.43;;;;;;;11.37;52.12;100877.66;4767419;29;20057;-93
2023/10/15 09:49:43;;;;;;;;;;;;;;;;;;;;;
2023/10/15 09:52:56;;;;;;;0.52;0.30;;;;;;;11.82;51.14;100883.25;4733519;29;20376;-92
2023/10/15 09:55:46;;;;;;;2.25;0.52;;;;;;;11.64;50.25;100878.22;4714810;29;20041;-92
2023/10/15 09:59:02;;;;;;;1.33;0.30;;;;;;;11.86;49.46;100883.19;4853771;29;20059;-93
2023/10/15 10:01:32;;;;;;;5.10;0.63;;;;;;;11.49;50.36;100877.50;4768184;29;20057;-93
2023/10/15 10:08:10;;;;;;;1.80;0.50;;;;;;;11.07;51.23;100892.84;4697056;29;20545;-92
2023/10/15 10:11:22;;;;;;;0.40;0.25;;;;;;;11.19;51.10;100898.88;4710427;29;20964;-92
2023/10/15 10:14:08;;;;;;;;;;;;;;;11.59;49.65;100895.81;4699287;29;20062;-91
2023/10/15 10:16:50;;;;;;;0.82;0.30;;;;;;;11.23;50.43;100887.47;5042507;27;20400;-86
2023/10/15 10:19:17;;;;;;;3.33;0.35;;;;;;;11.69;50.37;100881.66;5006588;28;20038;-86
2023/10/15 10:21:47;;;;;;;0.57;0.30;;;;;;;12.21;47.83;100877.50;4996663;28;20048;-85
2023/10/15 10:24:17;;;;;;;1.02;0.20;;;;;;;12.12;48.11;100891.66;5016610;28;20073;-86
2023/10/15 10:26:52;;;;;;;3.83;0.20;;;;;;;11.81;48.91;100878.88;5013607;28;20168;-86
2023/10/15 10:29:23;;;;;;;1.40;0.38;;;;;;;11.78;49.33;100878.91;5002909;28;20050;-84
2023/10/15 10:31:51;;;;;;;1.60;0.30;;;;;;;11.80;49.41;100890.28;5015933;28;20042;-84
2023/10/15 10:34:32;;;;;;;3.80;0.60;;;;;;;11.40;49.98;100880.25;5011418;28;20045;-84
2023/10/15 10:36:59;;;;;;;0.88;0.20;;;;;;;11.49;50.28;100884.53;5003392;28;20050;-84
2023/10/15 10:39:42;;;;;;;0.50;0.30;;;;;;;11.38;50.83;100886.41;5011709;28;20106;-87
2023/10/15 10:42:21;;;;;;;2.05;0.30;;;;;;;11.55;50.47;100888.84;5010604;28;20045;-87
2023/10/15 10:44:47;;;;;;;1.85;0.30;;;;;;;11.36;49.83;100889.06;5010247;28;20057;-87
2023/10/15 10:47:21;;;;;;;1.33;0.30;;;;;;;11.73;50.05;100893.88;5013850;28;20301;-86
2023/10/15 10:49:56;;;;;;;1.00;0.30;;;;;;;12.00;50.46;100883.91;5005671;28;20140;-85
2023/10/15 10:52:28;;;;;;;3.75;0.30;;;;;;;11.72;49.51;100888.66;5013714;28;20457;-85
2023/10/15 10:55:47;;;;;;;2.05;0.20;;;;;;;11.71;49.28;100895.66;4996749;28;20077;-86
2023/10/15 10:58:26;;;;;;;0.30;0.10;;;;;;;11.60;48.08;100892.28;5007588;28;20073;-86
2023/10/15 11:00:53;;;;;;;0.28;0.20;;;;;;;11.49;47.98;100901.16;5003524;28;20513;-86
2023/10/15 11:03:20;;;;;;;0.10;0.10;;;;;;;11.36;48.41;100896.94;5012897;28;20045;-85
2023/10/15 11:05:47;;;;;;;1.35;0.30;;;;;;;11.41;48.67;100891.63;4989169;28;20049;-85
2023/10/15 11:08:18;;;;;;;0.75;0.20;;;;;;;11.27;49.05;100895.28;5015360;28;20046;-85
2023/10/15 11:10:45;;;;;;;1.23;0.30;;;;;;;11.34;48.43;100896.09;5010737;28;20057;-85
2023/10/15 11:13:13;;;;;;;1.40;0.35;;;;;;;11.37;49.26;100893.44;5014122;28;20049;-84
2023/10/15 11:15:40;;;;;;;1.35;0.20;;;;;;;11.41;48.65;100897.78;5043905;28;20045;-84
2023/10/15 11:18:08;;;;;;;0.20;0.10;;;;;;;11.76;47.67;100883.31;5007870;28;20513;-85
2023/10/15 11:20:36;;;;;;;1.20;0.20;;;;;;;11.93;46.24;100876.97;5014183;28;20064;-84
2023/10/15 11:23:05;;;;;;;1.50;0.20;;;;;;;12.47;45.49;100886.72;5016726;28;20052;-85
2023/10/15 11:25:36;;;;;;;0.30;0.10;;;;;;;12.70;44.03;100883.72;5010853;28;20060;-85
2023/10/15 11:28:06;;;;;;;1.67;0.10;;;;;;;12.81;43.87;100875.66;4998017;28;20505;-86
2023/10/15 11:30:33;;;;;;;0.60;0.10;;;;;;;12.73;43.37;100862.63;4992012;28;20046;-87
2023/10/15 11:33:00;;;;;;;1.25;0.20;;;;;;;13.53;43.18;100857.63;4999835;28;20137;-84
2023/10/15 11:35:32;;;;;;;1.95;0.20;;;;;;;13.34;40.01;100862.38;5000285;28;20054;-84
2023/10/15 11:38:06;;;;;;;0.95;0.43;;;;;;;13.52;41.15;100867.28;4996305;28;20049;-86
2023/10/15 11:40:36;;;;;;;1.92;0.10;;;;;;;13.19;40.34;100866.16;5002605;28;20053;-88
2023/10/15 11:43:09;;;;;;;0.88;0.22;;;;;;;13.00;41.19;100866.50;4999768;28;20080;-85
2023/10/15 11:45:37;;;;;;;0.93;0.13;;;;;;;12.84;41.59;100881.72;4994635;28;20050;-89
2023/10/15 11:48:11;;;;;;;0.08;0.00;;;;;;;12.61;41.46;100879.47;4997775;28;20054;-85
2023/10/15 11:50:40;;;;;;;1.10;0.13;;;;;;;12.52;42.00;100892.78;4994463;28;20502;-85
2023/10/15 11:53:36;;;;;;;0.40;0.10;;;;;;;12.22;42.85;100875.72;5003175;28;20052;-85
2023/10/15 11:56:02;;;;;;;1.45;0.10;;;;;;;12.25;42.01;100881.81;5000783;28;20413;-87
2023/10/15 11:58:32;;;;;;;0.68;0.17;;;;;;;12.29;43.39;100887.88;4994224;28;20048;-86
2023/10/15 12:00:59;;;;;;;0.20;0.10;;;;;;;12.20;43.18;100885.41;4998830;28;20050;-85
2023/10/15 12:03:26;;;;;;;1.35;0.20;;;;;;;12.04;43.32;100877.72;5034544;28;20045;-85
2023/10/15 12:05:53;;;;;;;0.50;0.20;;;;;;;12.23;42.50;100880.09;4998080;28;20100;-85
2023/10/15 12:08:24;;;;;;;0.30;0.10;;;;;;;12.00;42.95;100878.66;4996596;28;20069;-86
2023/10/15 12:10:51;;;;;;;0.38;0.20;;;;;;;12.30;42.80;100884.38;4996546;28;20056;-85
2023/10/15 12:13:19;;;;;;;0.85;0.30;;;;;;;12.95;41.77;100872.78;5000437;28;20060;-86
2023/10/15 12:15:45;;;;;;;0.75;0.20;;;;;;;12.51;42.58;100873.50;4995275;28;20054;-85